sensor_id;sensor_type;location;lat;lon;timestamp;temperature;humidity
73586;DHT22;61865;50.232;18.614;2023-03-11T00:00:43;9.50;99.90
73586;DHT22;61865;50.232;18.614;2023-03-11T00:03:07;9.40;99.90
73586;DHT22;61865;50.232;18.614;2023-03-11T00:05:32;9.40;99.90
73586;DHT22;61865;50.232;18.614;2023-03-11T00:07:54;9.40;99.90
73586;DHT22;61865;50.232;18.614;2023-03-11T00:10:19;9.40;99.90
73586;DHT22;61865;50.232;18.614;2023-03-11T00:12:41;9.30;99.90
73586;DHT22;61865;50.232;18.614;2023-03-11T00:15:04;9.30;99.90
73586;DHT22;61865;50.232;18.614;2023-03-11T00:17:26;9.20;99.90
73586;DHT22;61865;50.232;18.614;2023-03-11T00:19:48;9.20;99.90
73586;DHT22;61865;50.232;18.614;2023-03-11T00:22:10;9.10;99.90
73586;DHT22;61865;50.232;18.614;2023-03-11T00:24:33;9.10;99.90
73586;DHT22;61865;50.232;18.614;2023-03-11T00:26:56;9.10;99.90
73586;DHT22;61865;50.232;18.614;2023-03-11T00:29:18;9.10;99.90
73586;DHT22;61865;50.232;18.614;2023-03-11T00:31:40;9.00;99.90
73586;DHT22;61865;50.232;18.614;2023-03-11T00:34:01;9.00;99.90
73586;DHT22;61865;50.232;18.614;2023-03-11T00:36:27;9.00;99.90
73586;DHT22;61865;50.232;18.614;2023-03-11T00:38:50;9.00;99.90
73586;DHT22;61865;50.232;18.614;2023-03-11T00:41:12;9.00;99.90
73586;DHT22;61865;50.232;18.614;2023-03-11T00:43:36;8.90;99.90
73586;DHT22;61865;50.232;18.614;2023-03-11T00:45:58;8.90;99.90
73586;DHT22;61865;50.232;18.614;2023-03-11T00:48:20;8.90;99.90
73586;DHT22;61865;50.232;18.614;2023-03-11T00:50:41;8.90;99.90
73586;DHT22;61865;50.232;18.614;2023-03-11T00:53:04;8.90;99.90
73586;DHT22;61865;50.232;18.614;2023-03-11T00:55:28;8.90;99.90
73586;DHT22;61865;50.232;18.614;2023-03-11T00:57:51;8.90;99.90
73586;DHT22;61865;50.232;18.614;2023-03-11T01:00:17;8.90;99.90
73586;DHT22;61865;50.232;18.614;2023-03-11T01:02:39;8.90;99.90
73586;DHT22;61865;50.232;18.614;2023-03-11T01:05:01;8.90;99.90
73586;DHT22;61865;50.232;18.614;2023-03-11T01:07:23;8.80;99.90
73586;DHT22;61865;50.232;18.614;2023-03-11T01:09:45;8.80;99.90
73586;DHT22;61865;50.232;18.614;2023-03-11T01:12:07;8.80;99.90
73586;DHT22;61865;50.232;18.614;2023-03-11T01:14:29;8.80;99.90
73586;DHT22;61865;50.232;18.614;2023-03-11T01:16:52;8.80;99.90
73586;DHT22;61865;50.232;18.614;2023-03-11T01:19:14;8.70;99.90
73586;DHT22;61865;50.232;18.614;2023-03-11T01:21:36;8.70;99.90
73586;DHT22;61865;50.232;18.614;2023-03-11T01:23:58;8.70;99.90
73586;DHT22;61865;50.232;18.614;2023-03-11T01:26:20;8.70;99.90
73586;DHT22;61865;50.232;18.614;2023-03-11T01:28:42;8.70;99.90
73586;DHT22;61865;50.232;18.614;2023-03-11T01:31:04;8.70;99.90
73586;DHT22;61865;50.232;18.614;2023-03-11T01:33:27;8.70;99.90
73586;DHT22;61865;50.232;18.614;2023-03-11T01:35:49;8.60;99.90
73586;DHT22;61865;50.232;18.614;2023-03-11T01:38:11;8.70;99.90
73586;DHT22;61865;50.232;18.614;2023-03-11T01:40:35;8.70;99.90
73586;DHT22;61865;50.232;18.614;2023-03-11T01:42:59;8.70;99.90
73586;DHT22;61865;50.232;18.614;2023-03-11T01:45:39;8.70;99.90
73586;DHT22;61865;50.232;18.614;2023-03-11T01:48:01;8.70;99.90
73586;DHT22;61865;50.232;18.614;2023-03-11T01:50:26;8.70;99.90
73586;DHT22;61865;50.232;18.614;2023-03-11T01:52:52;8.60;99.90
73586;DHT22;61865;50.232;18.614;2023-03-11T01:55:16;8.60;99.90
73586;DHT22;61865;50.232;18.614;2023-03-11T01:57:40;8.60;99.90
73586;DHT22;61865;50.232;18.614;2023-03-11T02:00:06;8.70;99.90
73586;DHT22;61865;50.232;18.614;2023-03-11T02:02:30;8.60;99.90
73586;DHT22;61865;50.232;18.614;2023-03-11T02:04:54;8.60;99.90
73586;DHT22;61865;50.232;18.614;2023-03-11T02:07:18;8.60;99.90
73586;DHT22;61865;50.232;18.614;2023-03-11T02:09:40;8.60;99.90
73586;DHT22;61865;50.232;18.614;2023-03-11T02:12:04;8.50;99.90
73586;DHT22;61865;50.232;18.614;2023-03-11T02:14:29;8.50;99.90
73586;DHT22;61865;50.232;18.614;2023-03-11T02:16:51;8.40;99.90
73586;DHT22;61865;50.232;18.614;2023-03-11T02:19:21;8.40;99.90
73586;DHT22;61865;50.232;18.614;2023-03-11T02:21:44;8.40;99.90
73586;DHT22;61865;50.232;18.614;2023-03-11T02:24:12;8.30;99.90
73586;DHT22;61865;50.232;18.614;2023-03-11T02:29:07;8.20;99.90
73586;DHT22;61865;50.232;18.614;2023-03-11T02:31:30;8.10;99.90
73586;DHT22;61865;50.232;18.614;2023-03-11T02:33:53;8.10;99.90
73586;DHT22;61865;50.232;18.614;2023-03-11T02:36:31;8.00;99.90
73586;DHT22;61865;50.232;18.614;2023-03-11T02:38:53;8.00;99.90
73586;DHT22;61865;50.232;18.614;2023-03-11T02:41:15;8.00;99.90
73586;DHT22;61865;50.232;18.614;2023-03-11T02:43:39;8.00;99.90
73586;DHT22;61865;50.232;18.614;2023-03-11T02:46:04;7.80;99.90
73586;DHT22;61865;50.232;18.614;2023-03-11T02:48:29;7.80;99.90
73586;DHT22;61865;50.232;18.614;2023-03-11T02:50:51;7.80;99.90
73586;DHT22;61865;50.232;18.614;2023-03-11T02:53:14;7.70;99.90
73586;DHT22;61865;50.232;18.614;2023-03-11T02:55:36;7.70;99.90
73586;DHT22;61865;50.232;18.614;2023-03-11T02:57:58;7.60;99.90
73586;DHT22;61865;50.232;18.614;2023-03-11T03:00:20;7.60;99.90
73586;DHT22;61865;50.232;18.614;2023-03-11T03:02:44;7.60;99.90
73586;DHT22;61865;50.232;18.614;2023-03-11T03:05:07;7.50;99.90
73586;DHT22;61865;50.232;18.614;2023-03-11T03:07:29;7.50;99.90
73586;DHT22;61865;50.232;18.614;2023-03-11T03:09:51;7.40;99.90
73586;DHT22;61865;50.232;18.614;2023-03-11T03:12:13;7.30;99.90
73586;DHT22;61865;50.232;18.614;2023-03-11T03:14:35;7.20;99.90
73586;DHT22;61865;50.232;18.614;2023-03-11T03:16:57;7.10;99.90
73586;DHT22;61865;50.232;18.614;2023-03-11T03:19:20;7.00;99.90
73586;DHT22;61865;50.232;18.614;2023-03-11T03:21:42;7.00;99.90
73586;DHT22;61865;50.232;18.614;2023-03-11T03:24:04;6.90;99.90
73586;DHT22;61865;50.232;18.614;2023-03-11T03:26:26;6.90;99.90
73586;DHT22;61865;50.232;18.614;2023-03-11T03:28:48;6.70;99.90
73586;DHT22;61865;50.232;18.614;2023-03-11T03:31:10;6.70;99.90
73586;DHT22;61865;50.232;18.614;2023-03-11T03:33:33;6.60;99.90
73586;DHT22;61865;50.232;18.614;2023-03-11T03:35:56;6.50;99.90
73586;DHT22;61865;50.232;18.614;2023-03-11T03:38:18;6.50;99.90
73586;DHT22;61865;50.232;18.614;2023-03-11T03:40:45;6.50;99.90
73586;DHT22;61865;50.232;18.614;2023-03-11T03:43:07;6.40;99.90
73586;DHT22;61865;50.232;18.614;2023-03-11T03:45:28;6.30;99.90
73586;DHT22;61865;50.232;18.614;2023-03-11T03:47:50;6.20;99.90
73586;DHT22;61865;50.232;18.614;2023-03-11T03:50:12;6.20;99.90
73586;DHT22;61865;50.232;18.614;2023-03-11T03:52:36;6.00;99.90
73586;DHT22;61865;50.232;18.614;2023-03-11T03:54:58;5.90;99.90
73586;DHT22;61865;50.232;18.614;2023-03-11T03:57:20;5.80;99.90
73586;DHT22;61865;50.232;18.614;2023-03-11T03:59:42;5.80;99.90
73586;DHT22;61865;50.232;18.614;2023-03-11T04:02:04;5.70;99.90
73586;DHT22;61865;50.232;18.614;2023-03-11T04:04:26;5.70;99.90
73586;DHT22;61865;50.232;18.614;2023-03-11T04:06:48;5.60;99.90
73586;DHT22;61865;50.232;18.614;2023-03-11T04:09:11;5.50;99.90
73586;DHT22;61865;50.232;18.614;2023-03-11T04:11:33;5.40;99.90
73586;DHT22;61865;50.232;18.614;2023-03-11T04:13:55;5.40;99.90
73586;DHT22;61865;50.232;18.614;2023-03-11T04:16:21;5.30;99.90
73586;DHT22;61865;50.232;18.614;2023-03-11T04:18:44;5.20;99.90
73586;DHT22;61865;50.232;18.614;2023-03-11T04:21:06;5.10;99.90
73586;DHT22;61865;50.232;18.614;2023-03-11T04:23:28;5.10;99.90
73586;DHT22;61865;50.232;18.614;2023-03-11T04:25:51;5.10;99.90
73586;DHT22;61865;50.232;18.614;2023-03-11T04:28:13;5.00;99.90
73586;DHT22;61865;50.232;18.614;2023-03-11T04:30:35;4.90;99.90
73586;DHT22;61865;50.232;18.614;2023-03-11T04:32:57;4.90;99.90
73586;DHT22;61865;50.232;18.614;2023-03-11T04:35:19;4.90;99.90
73586;DHT22;61865;50.232;18.614;2023-03-11T04:37:40;4.80;99.90
73586;DHT22;61865;50.232;18.614;2023-03-11T04:40:03;4.80;99.90
73586;DHT22;61865;50.232;18.614;2023-03-11T04:42:27;4.70;99.90
73586;DHT22;61865;50.232;18.614;2023-03-11T04:44:49;4.60;99.90
73586;DHT22;61865;50.232;18.614;2023-03-11T04:47:11;4.60;99.90
73586;DHT22;61865;50.232;18.614;2023-03-11T04:49:33;4.60;99.90
73586;DHT22;61865;50.232;18.614;2023-03-11T04:51:54;4.60;99.90
73586;DHT22;61865;50.232;18.614;2023-03-11T04:54:16;4.50;99.90
73586;DHT22;61865;50.232;18.614;2023-03-11T04:56:38;4.40;99.90
73586;DHT22;61865;50.232;18.614;2023-03-11T04:59:01;4.30;99.90
73586;DHT22;61865;50.232;18.614;2023-03-11T05:01:23;4.20;99.90
73586;DHT22;61865;50.232;18.614;2023-03-11T05:03:46;4.00;99.90
73586;DHT22;61865;50.232;18.614;2023-03-11T05:06:08;3.90;99.90
73586;DHT22;61865;50.232;18.614;2023-03-11T05:08:29;3.60;99.90
73586;DHT22;61865;50.232;18.614;2023-03-11T05:10:52;3.40;99.90
73586;DHT22;61865;50.232;18.614;2023-03-11T05:13:14;3.20;99.90
73586;DHT22;61865;50.232;18.614;2023-03-11T05:15:37;3.20;99.90
73586;DHT22;61865;50.232;18.614;2023-03-11T05:17:59;3.00;99.90
73586;DHT22;61865;50.232;18.614;2023-03-11T05:20:21;3.00;99.90
73586;DHT22;61865;50.232;18.614;2023-03-11T05:22:42;2.90;99.90
73586;DHT22;61865;50.232;18.614;2023-03-11T05:25:05;2.90;99.90
73586;DHT22;61865;50.232;18.614;2023-03-11T05:27:27;2.90;99.90
73586;DHT22;61865;50.232;18.614;2023-03-11T05:29:48;2.90;99.90
73586;DHT22;61865;50.232;18.614;2023-03-11T05:32:12;2.90;99.90
73586;DHT22;61865;50.232;18.614;2023-03-11T05:34:34;2.90;99.90
73586;DHT22;61865;50.232;18.614;2023-03-11T05:36:56;2.80;99.90
73586;DHT22;61865;50.232;18.614;2023-03-11T05:39:18;2.90;99.90
73586;DHT22;61865;50.232;18.614;2023-03-11T05:41:39;2.80;99.90
73586;DHT22;61865;50.232;18.614;2023-03-11T05:44:02;2.80;99.90
73586;DHT22;61865;50.232;18.614;2023-03-11T05:46:24;2.80;99.90
73586;DHT22;61865;50.232;18.614;2023-03-11T05:48:47;2.70;99.90
73586;DHT22;61865;50.232;18.614;2023-03-11T05:51:10;2.50;99.90
73586;DHT22;61865;50.232;18.614;2023-03-11T05:53:32;2.40;99.90
73586;DHT22;61865;50.232;18.614;2023-03-11T05:55:58;2.20;99.90
73586;DHT22;61865;50.232;18.614;2023-03-11T05:58:20;2.20;99.90
73586;DHT22;61865;50.232;18.614;2023-03-11T06:00:42;2.20;99.90
73586;DHT22;61865;50.232;18.614;2023-03-11T06:03:04;2.00;99.90
73586;DHT22;61865;50.232;18.614;2023-03-11T06:05:27;1.80;99.90
73586;DHT22;61865;50.232;18.614;2023-03-11T06:07:49;1.80;99.90
73586;DHT22;61865;50.232;18.614;2023-03-11T06:10:11;1.70;99.90
73586;DHT22;61865;50.232;18.614;2023-03-11T06:12:33;1.60;99.90
73586;DHT22;61865;50.232;18.614;2023-03-11T06:14:55;1.50;99.90
73586;DHT22;61865;50.232;18.614;2023-03-11T06:17:17;1.60;99.90
73586;DHT22;61865;50.232;18.614;2023-03-11T06:19:39;1.60;99.90
73586;DHT22;61865;50.232;18.614;2023-03-11T06:22:03;1.50;99.90
73586;DHT22;61865;50.232;18.614;2023-03-11T06:24:25;1.60;99.90
73586;DHT22;61865;50.232;18.614;2023-03-11T06:26:50;1.60;99.90
73586;DHT22;61865;50.232;18.614;2023-03-11T06:29:13;1.60;99.90
73586;DHT22;61865;50.232;18.614;2023-03-11T06:31:35;1.70;99.90
73586;DHT22;61865;50.232;18.614;2023-03-11T06:33:57;1.60;99.90
73586;DHT22;61865;50.232;18.614;2023-03-11T06:36:19;1.70;99.90
73586;DHT22;61865;50.232;18.614;2023-03-11T06:38:43;1.70;99.90
73586;DHT22;61865;50.232;18.614;2023-03-11T06:41:06;1.70;99.90
73586;DHT22;61865;50.232;18.614;2023-03-11T06:43:28;1.70;99.90
73586;DHT22;61865;50.232;18.614;2023-03-11T06:45:51;1.80;99.90
73586;DHT22;61865;50.232;18.614;2023-03-11T06:48:13;1.70;99.90
73586;DHT22;61865;50.232;18.614;2023-03-11T06:50:35;1.70;99.90
73586;DHT22;61865;50.232;18.614;2023-03-11T06:52:57;1.70;99.90
73586;DHT22;61865;50.232;18.614;2023-03-11T06:55:21;1.70;99.90
73586;DHT22;61865;50.232;18.614;2023-03-11T06:57:43;1.80;99.90
73586;DHT22;61865;50.232;18.614;2023-03-11T07:00:06;1.70;99.90
73586;DHT22;61865;50.232;18.614;2023-03-11T07:02:31;1.80;99.90
73586;DHT22;61865;50.232;18.614;2023-03-11T07:04:53;1.80;99.90
73586;DHT22;61865;50.232;18.614;2023-03-11T07:07:15;1.80;99.90
73586;DHT22;61865;50.232;18.614;2023-03-11T07:13:17;1.70;99.90
73586;DHT22;61865;50.232;18.614;2023-03-11T07:16:14;1.80;99.90
73586;DHT22;61865;50.232;18.614;2023-03-11T07:19:14;1.70;99.90
73586;DHT22;61865;50.232;18.614;2023-03-11T07:21:55;1.80;99.90
73586;DHT22;61865;50.232;18.614;2023-03-11T07:27:13;1.80;99.90
73586;DHT22;61865;50.232;18.614;2023-03-11T07:28:04;1.90;99.90
73586;DHT22;61865;50.232;18.614;2023-03-11T07:30:29;2.00;99.90
73586;DHT22;61865;50.232;18.614;2023-03-11T07:32:51;2.00;99.90
73586;DHT22;61865;50.232;18.614;2023-03-11T07:35:13;2.10;99.90
73586;DHT22;61865;50.232;18.614;2023-03-11T07:37:34;2.20;99.90
73586;DHT22;61865;50.232;18.614;2023-03-11T07:39:56;2.10;99.90
73586;DHT22;61865;50.232;18.614;2023-03-11T07:42:18;2.10;99.90
73586;DHT22;61865;50.232;18.614;2023-03-11T07:44:40;2.10;99.90
73586;DHT22;61865;50.232;18.614;2023-03-11T07:47:04;2.00;99.90
73586;DHT22;61865;50.232;18.614;2023-03-11T07:49:26;2.00;99.90
73586;DHT22;61865;50.232;18.614;2023-03-11T07:51:48;2.00;99.90
73586;DHT22;61865;50.232;18.614;2023-03-11T07:54:10;2.00;99.90
73586;DHT22;61865;50.232;18.614;2023-03-11T07:56:34;2.00;99.90
73586;DHT22;61865;50.232;18.614;2023-03-11T07:58:57;2.10;99.90
73586;DHT22;61865;50.232;18.614;2023-03-11T08:01:21;2.00;99.90
73586;DHT22;61865;50.232;18.614;2023-03-11T08:03:46;1.90;99.90
73586;DHT22;61865;50.232;18.614;2023-03-11T08:06:12;1.90;99.90
73586;DHT22;61865;50.232;18.614;2023-03-11T08:08:34;1.90;99.90
73586;DHT22;61865;50.232;18.614;2023-03-11T08:10:57;1.90;99.90
73586;DHT22;61865;50.232;18.614;2023-03-11T08:13:23;1.80;99.90
73586;DHT22;61865;50.232;18.614;2023-03-11T08:15:45;1.90;99.90
73586;DHT22;61865;50.232;18.614;2023-03-11T08:18:07;1.70;99.90
73586;DHT22;61865;50.232;18.614;2023-03-11T08:20:30;1.70;99.90
73586;DHT22;61865;50.232;18.614;2023-03-11T08:22:52;1.70;99.90
73586;DHT22;61865;50.232;18.614;2023-03-11T08:28:38;1.60;99.90
73586;DHT22;61865;50.232;18.614;2023-03-11T08:31:02;1.60;99.90
73586;DHT22;61865;50.232;18.614;2023-03-11T08:33:28;1.50;99.90
73586;DHT22;61865;50.232;18.614;2023-03-11T08:35:55;1.60;99.90
73586;DHT22;61865;50.232;18.614;2023-03-11T08:38:17;1.50;99.90
73586;DHT22;61865;50.232;18.614;2023-03-11T08:40:39;1.40;99.90
73586;DHT22;61865;50.232;18.614;2023-03-11T08:43:01;1.40;99.90
73586;DHT22;61865;50.232;18.614;2023-03-11T08:45:23;1.40;99.90
73586;DHT22;61865;50.232;18.614;2023-03-11T08:47:45;1.40;99.90
73586;DHT22;61865;50.232;18.614;2023-03-11T08:50:10;1.30;99.90
73586;DHT22;61865;50.232;18.614;2023-03-11T08:52:34;1.20;99.90
73586;DHT22;61865;50.232;18.614;2023-03-11T08:54:57;1.20;99.90
73586;DHT22;61865;50.232;18.614;2023-03-11T08:57:19;1.10;99.90
73586;DHT22;61865;50.232;18.614;2023-03-11T08:59:40;1.00;99.90
73586;DHT22;61865;50.232;18.614;2023-03-11T09:02:03;1.00;99.90
73586;DHT22;61865;50.232;18.614;2023-03-11T09:04:25;1.00;99.90
73586;DHT22;61865;50.232;18.614;2023-03-11T09:06:47;1.00;99.90
73586;DHT22;61865;50.232;18.614;2023-03-11T09:09:11;1.00;99.90
73586;DHT22;61865;50.232;18.614;2023-03-11T09:11:33;1.10;99.90
73586;DHT22;61865;50.232;18.614;2023-03-11T09:13:56;1.20;99.90
73586;DHT22;61865;50.232;18.614;2023-03-11T09:16:20;1.10;99.90
73586;DHT22;61865;50.232;18.614;2023-03-11T09:18:44;1.20;99.90
73586;DHT22;61865;50.232;18.614;2023-03-11T09:21:06;1.10;99.90
73586;DHT22;61865;50.232;18.614;2023-03-11T09:23:29;1.10;99.90
73586;DHT22;61865;50.232;18.614;2023-03-11T09:25:52;1.20;99.90
73586;DHT22;61865;50.232;18.614;2023-03-11T09:28:14;1.30;99.90
73586;DHT22;61865;50.232;18.614;2023-03-11T09:30:36;1.30;99.90
73586;DHT22;61865;50.232;18.614;2023-03-11T09:32:58;1.30;99.90
73586;DHT22;61865;50.232;18.614;2023-03-11T09:35:20;1.20;99.90
73586;DHT22;61865;50.232;18.614;2023-03-11T09:37:42;1.10;99.90
73586;DHT22;61865;50.232;18.614;2023-03-11T09:40:05;1.20;99.90
73586;DHT22;61865;50.232;18.614;2023-03-11T09:42:34;1.00;99.90
73586;DHT22;61865;50.232;18.614;2023-03-11T09:45:02;1.00;99.90
73586;DHT22;61865;50.232;18.614;2023-03-11T09:47:35;0.90;99.90
73586;DHT22;61865;50.232;18.614;2023-03-11T09:52:57;0.90;99.90
73586;DHT22;61865;50.232;18.614;2023-03-11T09:55:33;0.90;99.90
73586;DHT22;61865;50.232;18.614;2023-03-11T09:58:02;0.90;99.90
73586;DHT22;61865;50.232;18.614;2023-03-11T10:00:25;0.80;99.90
73586;DHT22;61865;50.232;18.614;2023-03-11T10:02:48;0.80;99.90
73586;DHT22;61865;50.232;18.614;2023-03-11T10:05:14;0.90;99.90
73586;DHT22;61865;50.232;18.614;2023-03-11T10:07:39;0.90;99.90
73586;DHT22;61865;50.232;18.614;2023-03-11T10:10:03;0.90;99.90
73586;DHT22;61865;50.232;18.614;2023-03-11T10:12:42;0.90;99.90
73586;DHT22;61865;50.232;18.614;2023-03-11T10:15:18;0.90;99.90
73586;DHT22;61865;50.232;18.614;2023-03-11T10:17:51;0.90;99.90
73586;DHT22;61865;50.232;18.614;2023-03-11T10:20:20;0.90;99.90
73586;DHT22;61865;50.232;18.614;2023-03-11T10:22:50;0.90;99.90
73586;DHT22;61865;50.232;18.614;2023-03-11T10:25:19;0.90;99.90
73586;DHT22;61865;50.232;18.614;2023-03-11T10:27:48;0.90;99.90
73586;DHT22;61865;50.232;18.614;2023-03-11T10:30:20;0.90;99.90
73586;DHT22;61865;50.232;18.614;2023-03-11T10:32:46;0.90;99.90
73586;DHT22;61865;50.232;18.614;2023-03-11T10:35:16;0.90;99.90
73586;DHT22;61865;50.232;18.614;2023-03-11T10:37:42;0.90;99.90
73586;DHT22;61865;50.232;18.614;2023-03-11T10:40:18;0.90;99.90
73586;DHT22;61865;50.232;18.614;2023-03-11T10:42:44;0.90;99.90
73586;DHT22;61865;50.232;18.614;2023-03-11T10:45:11;0.90;99.90
73586;DHT22;61865;50.232;18.614;2023-03-11T10:47:35;0.90;99.90
73586;DHT22;61865;50.232;18.614;2023-03-11T10:49:57;0.90;99.90
73586;DHT22;61865;50.232;18.614;2023-03-11T10:52:19;0.90;99.90
73586;DHT22;61865;50.232;18.614;2023-03-11T10:54:43;0.90;99.90
73586;DHT22;61865;50.232;18.614;2023-03-11T10:57:21;0.90;99.90
73586;DHT22;61865;50.232;18.614;2023-03-11T10:59:46;0.80;99.90
73586;DHT22;61865;50.232;18.614;2023-03-11T11:02:22;0.80;99.90
73586;DHT22;61865;50.232;18.614;2023-03-11T11:04:47;0.80;99.90
73586;DHT22;61865;50.232;18.614;2023-03-11T11:07:23;0.80;99.90
73586;DHT22;61865;50.232;18.614;2023-03-11T11:10:12;0.80;99.90
73586;DHT22;61865;50.232;18.614;2023-03-11T11:12:34;0.80;99.90
73586;DHT22;61865;50.232;18.614;2023-03-11T11:14:58;0.70;99.90
73586;DHT22;61865;50.232;18.614;2023-03-11T11:17:23;0.70;99.90
73586;DHT22;61865;50.232;18.614;2023-03-11T11:19:50;0.70;99.90
73586;DHT22;61865;50.232;18.614;2023-03-11T11:22:16;0.70;99.90
73586;DHT22;61865;50.232;18.614;2023-03-11T11:24:42;0.70;99.90
73586;DHT22;61865;50.232;18.614;2023-03-11T11:27:11;0.70;99.90
73586;DHT22;61865;50.232;18.614;2023-03-11T11:29:35;0.70;99.90
73586;DHT22;61865;50.232;18.614;2023-03-11T11:32:15;0.80;99.90
73586;DHT22;61865;50.232;18.614;2023-03-11T11:34:38;0.90;99.90
73586;DHT22;61865;50.232;18.614;2023-03-11T11:37:04;0.90;99.90
73586;DHT22;61865;50.232;18.614;2023-03-11T11:39:29;0.90;99.90
73586;DHT22;61865;50.232;18.614;2023-03-11T11:41:52;0.80;99.90
73586;DHT22;61865;50.232;18.614;2023-03-11T11:44:18;0.80;99.90
73586;DHT22;61865;50.232;18.614;2023-03-11T11:46:45;0.80;99.90
73586;DHT22;61865;50.232;18.614;2023-03-11T11:49:14;0.80;99.90
73586;DHT22;61865;50.232;18.614;2023-03-11T11:51:40;0.80;99.90
73586;DHT22;61865;50.232;18.614;2023-03-11T11:54:14;0.80;99.90
73586;DHT22;61865;50.232;18.614;2023-03-11T11:56:36;0.80;99.90
73586;DHT22;61865;50.232;18.614;2023-03-11T11:59:00;0.70;99.90
73586;DHT22;61865;50.232;18.614;2023-03-11T12:01:30;0.70;99.90
73586;DHT22;61865;50.232;18.614;2023-03-11T12:06:43;0.70;99.90
73586;DHT22;61865;50.232;18.614;2023-03-11T12:09:15;0.60;99.90
73586;DHT22;61865;50.232;18.614;2023-03-11T12:11:50;0.70;99.90
73586;DHT22;61865;50.232;18.614;2023-03-11T12:14:20;0.70;99.90
73586;DHT22;61865;50.232;18.614;2023-03-11T12:16:47;0.80;99.90
73586;DHT22;61865;50.232;18.614;2023-03-11T12:19:22;0.80;99.90
73586;DHT22;61865;50.232;18.614;2023-03-11T12:22:04;0.90;99.90
73586;DHT22;61865;50.232;18.614;2023-03-11T12:24:45;0.90;99.90
73586;DHT22;61865;50.232;18.614;2023-03-11T12:27:14;1.00;99.90
73586;DHT22;61865;50.232;18.614;2023-03-11T12:29:42;1.00;99.90
73586;DHT22;61865;50.232;18.614;2023-03-11T12:32:05;1.00;99.90
73586;DHT22;61865;50.232;18.614;2023-03-11T12:34:28;0.90;99.90
73586;DHT22;61865;50.232;18.614;2023-03-11T12:36:52;0.90;99.90
73586;DHT22;61865;50.232;18.614;2023-03-11T12:39:21;0.90;99.90
73586;DHT22;61865;50.232;18.614;2023-03-11T12:41:45;0.90;99.90
73586;DHT22;61865;50.232;18.614;2023-03-11T12:44:22;0.90;99.90
73586;DHT22;61865;50.232;18.614;2023-03-11T12:47:24;0.90;99.90
73586;DHT22;61865;50.232;18.614;2023-03-11T12:49:49;0.90;99.90
73586;DHT22;61865;50.232;18.614;2023-03-11T12:52:28;0.90;99.90
73586;DHT22;61865;50.232;18.614;2023-03-11T12:55:28;0.90;99.90
73586;DHT22;61865;50.232;18.614;2023-03-11T12:58:00;0.80;99.90
73586;DHT22;61865;50.232;18.614;2023-03-11T13:00:39;0.80;99.90
73586;DHT22;61865;50.232;18.614;2023-03-11T13:03:34;0.90;99.90
73586;DHT22;61865;50.232;18.614;2023-03-11T13:06:09;0.90;99.90
73586;DHT22;61865;50.232;18.614;2023-03-11T13:08:43;0.80;99.90
73586;DHT22;61865;50.232;18.614;2023-03-11T13:11:37;0.80;99.90
73586;DHT22;61865;50.232;18.614;2023-03-11T13:14:22;0.80;99.90
73586;DHT22;61865;50.232;18.614;2023-03-11T13:16:45;0.90;99.90
73586;DHT22;61865;50.232;18.614;2023-03-11T13:19:34;0.90;99.90
73586;DHT22;61865;50.232;18.614;2023-03-11T13:21:57;0.90;99.90
73586;DHT22;61865;50.232;18.614;2023-03-11T13:24:38;0.90;99.90
73586;DHT22;61865;50.232;18.614;2023-03-11T13:27:01;0.80;99.90
73586;DHT22;61865;50.232;18.614;2023-03-11T13:29:50;0.80;99.90
73586;DHT22;61865;50.232;18.614;2023-03-11T13:32:43;0.80;99.90
73586;DHT22;61865;50.232;18.614;2023-03-11T13:35:27;0.80;99.90
73586;DHT22;61865;50.232;18.614;2023-03-11T13:38:11;0.70;99.90
73586;DHT22;61865;50.232;18.614;2023-03-11T13:40:38;0.70;99.90
73586;DHT22;61865;50.232;18.614;2023-03-11T13:43:02;0.70;99.90
73586;DHT22;61865;50.232;18.614;2023-03-11T13:45:28;0.80;99.90
73586;DHT22;61865;50.232;18.614;2023-03-11T13:47:52;0.80;99.90
73586;DHT22;61865;50.232;18.614;2023-03-11T13:50:21;0.80;99.90
73586;DHT22;61865;50.232;18.614;2023-03-11T13:52:46;0.90;99.90
73586;DHT22;61865;50.232;18.614;2023-03-11T13:55:18;0.90;99.90
73586;DHT22;61865;50.232;18.614;2023-03-11T13:57:48;0.90;99.90
73586;DHT22;61865;50.232;18.614;2023-03-11T14:00:14;1.00;99.90
73586;DHT22;61865;50.232;18.614;2023-03-11T14:02:44;1.00;99.90
73586;DHT22;61865;50.232;18.614;2023-03-11T14:05:14;1.10;99.90
73586;DHT22;61865;50.232;18.614;2023-03-11T14:07:36;1.10;99.90
73586;DHT22;61865;50.232;18.614;2023-03-11T14:10:21;1.10;99.90
73586;DHT22;61865;50.232;18.614;2023-03-11T14:12:44;1.10;99.90
73586;DHT22;61865;50.232;18.614;2023-03-11T14:15:07;1.10;99.90
73586;DHT22;61865;50.232;18.614;2023-03-11T14:17:30;1.10;99.90
73586;DHT22;61865;50.232;18.614;2023-03-11T14:20:06;1.00;99.90
73586;DHT22;61865;50.232;18.614;2023-03-11T14:22:31;1.00;99.90
73586;DHT22;61865;50.232;18.614;2023-03-11T14:24:53;1.10;99.90
73586;DHT22;61865;50.232;18.614;2023-03-11T14:27:16;1.10;99.90
73586;DHT22;61865;50.232;18.614;2023-03-11T14:29:39;1.10;99.90
73586;DHT22;61865;50.232;18.614;2023-03-11T14:32:15;1.10;99.90
73586;DHT22;61865;50.232;18.614;2023-03-11T14:34:39;1.10;99.90
73586;DHT22;61865;50.232;18.614;2023-03-11T14:37:14;1.10;99.90
73586;DHT22;61865;50.232;18.614;2023-03-11T14:39:42;1.20;99.90
73586;DHT22;61865;50.232;18.614;2023-03-11T14:42:09;1.00;99.90
73586;DHT22;61865;50.232;18.614;2023-03-11T14:44:36;1.00;99.90
73586;DHT22;61865;50.232;18.614;2023-03-11T14:47:08;1.00;99.90
73586;DHT22;61865;50.232;18.614;2023-03-11T14:49:31;0.90;99.90
73586;DHT22;61865;50.232;18.614;2023-03-11T14:51:56;0.90;99.90
73586;DHT22;61865;50.232;18.614;2023-03-11T14:54:23;0.80;99.90
73586;DHT22;61865;50.232;18.614;2023-03-11T14:56:48;0.60;99.90
73586;DHT22;61865;50.232;18.614;2023-03-11T14:59:14;0.60;99.90
73586;DHT22;61865;50.232;18.614;2023-03-11T15:01:43;0.70;99.90
73586;DHT22;61865;50.232;18.614;2023-03-11T15:04:10;0.80;99.90
73586;DHT22;61865;50.232;18.614;2023-03-11T15:06:33;0.80;99.90
73586;DHT22;61865;50.232;18.614;2023-03-11T15:08:58;0.90;99.90
73586;DHT22;61865;50.232;18.614;2023-03-11T15:11:23;0.90;99.90
73586;DHT22;61865;50.232;18.614;2023-03-11T15:13:48;0.90;99.90
73586;DHT22;61865;50.232;18.614;2023-03-11T15:16:22;0.90;99.90
73586;DHT22;61865;50.232;18.614;2023-03-11T15:18:44;0.80;99.90
73586;DHT22;61865;50.232;18.614;2023-03-11T15:21:12;0.70;99.90
73586;DHT22;61865;50.232;18.614;2023-03-11T15:23:35;0.50;99.90
73586;DHT22;61865;50.232;18.614;2023-03-11T15:25:57;0.40;99.90
73586;DHT22;61865;50.232;18.614;2023-03-11T15:28:26;0.40;99.90
73586;DHT22;61865;50.232;18.614;2023-03-11T15:30:48;0.30;99.90
73586;DHT22;61865;50.232;18.614;2023-03-11T15:33:21;0.30;99.90
73586;DHT22;61865;50.232;18.614;2023-03-11T15:35:45;0.30;99.90